createdAt,value
2022-10-28T00:01:28.066Z,6.70
2022-10-28T00:03:56.438Z,5.75
2022-10-28T00:06:25.053Z,7.40
2022-10-28T00:08:52.700Z,7.20
2022-10-28T00:11:20.958Z,8.50
2022-10-28T00:13:48.450Z,8.10
2022-10-28T00:16:16.812Z,7.70
2022-10-28T00:18:44.139Z,8.30
2022-10-28T00:21:13.474Z,7.43
2022-10-28T00:23:40.918Z,6.60
2022-10-28T00:26:10.614Z,7.55
2022-10-28T00:28:41.285Z,7.78
2022-10-28T00:31:09.250Z,6.63
2022-10-28T00:33:36.402Z,6.28
2022-10-28T00:36:23.355Z,7.32
2022-10-28T00:38:51.149Z,6.53
2022-10-28T00:41:19.726Z,7.93
2022-10-28T00:43:48.190Z,7.70
2022-10-28T00:46:18.454Z,7.18
2022-10-28T00:48:47.402Z,7.95
2022-10-28T00:51:15.429Z,7.60
2022-10-28T00:53:44.101Z,7.43
2022-10-28T00:56:11.775Z,7.22
2022-10-28T00:58:38.985Z,7.40
2022-10-28T01:01:06.093Z,7.97
2022-10-28T01:03:33.227Z,7.22
2022-10-28T01:06:01.753Z,7.38
2022-10-28T01:08:28.972Z,7.40
2022-10-28T01:11:09.122Z,6.78
2022-10-28T01:13:36.221Z,6.63
2022-10-28T01:16:08.082Z,6.25
2022-10-28T01:18:55.093Z,6.35
2022-10-28T01:21:51.196Z,6.43
2022-10-28T01:24:48.136Z,6.90
2022-10-28T01:27:25.546Z,6.82
2022-10-28T01:30:12.852Z,6.90
2022-10-28T01:32:43.122Z,6.95
2022-10-28T01:35:14.321Z,6.63
2022-10-28T01:37:47.546Z,6.95
2022-10-28T01:40:17.889Z,6.70
2022-10-28T01:42:47.013Z,6.65
2022-10-28T01:45:34.003Z,7.18
2022-10-28T01:48:01.954Z,7.03
2022-10-28T01:50:33.427Z,6.80
2022-10-28T01:53:04.209Z,7.22
2022-10-28T01:55:33.937Z,7.13
2022-10-28T01:58:02.435Z,6.47
2022-10-28T02:00:30.476Z,7.22
2022-10-28T02:02:57.581Z,6.97
2022-10-28T02:05:44.588Z,7.72
2022-10-28T02:08:18.927Z,7.53
2022-10-28T02:11:05.869Z,8.05
2022-10-28T02:13:42.859Z,7.43
2022-10-28T02:16:24.210Z,8.15
2022-10-28T02:19:00.695Z,8.13
2022-10-28T02:21:37.799Z,7.82
2022-10-28T02:24:18.964Z,8.30
2022-10-28T02:26:52.312Z,8.13
2022-10-28T02:29:29.544Z,7.90
2022-10-28T02:31:58.703Z,8.87
2022-10-28T02:34:28.119Z,8.47
2022-10-28T02:36:56.519Z,9.60
2022-10-28T02:39:26.871Z,9.27
2022-10-28T02:41:55.955Z,8.82
2022-10-28T02:44:25.820Z,8.93
2022-10-28T02:46:53.900Z,9.20
2022-10-28T02:49:20.955Z,9.05
2022-10-28T02:52:05.272Z,9.35
2022-10-28T02:54:38.935Z,9.30
2022-10-28T02:57:15.540Z,9.53
2022-10-28T02:59:42.719Z,8.95
2022-10-28T03:02:10.031Z,8.68
2022-10-28T03:04:37.175Z,7.95
2022-10-28T03:07:03.810Z,7.18
2022-10-28T03:09:30.891Z,8.85
2022-10-28T03:11:57.994Z,8.70
2022-10-28T03:14:25.002Z,8.38
2022-10-28T03:16:52.047Z,8.40
2022-10-28T03:19:19.106Z,8.30
2022-10-28T03:21:46.166Z,8.03
2022-10-28T03:24:13.207Z,7.85
2022-10-28T03:26:40.336Z,8.93
2022-10-28T03:29:07.419Z,8.35
2022-10-28T03:31:34.580Z,8.50
2022-10-28T03:34:01.658Z,9.00
2022-10-28T03:36:28.699Z,7.97
2022-10-28T03:38:55.771Z,9.40
2022-10-28T03:41:22.745Z,9.30
2022-10-28T03:43:49.866Z,8.68
2022-10-28T03:46:16.944Z,9.52
2022-10-28T03:48:44.095Z,8.57
2022-10-28T03:51:11.184Z,9.10
2022-10-28T03:53:38.262Z,8.63
2022-10-28T03:56:05.446Z,8.68
2022-10-28T03:58:35.130Z,8.57
2022-10-28T04:01:04.778Z,8.57
2022-10-28T04:03:31.970Z,7.80
2022-10-28T04:05:59.048Z,8.10
2022-10-28T04:08:26.063Z,9.43
2022-10-28T04:10:53.178Z,9.18
2022-10-28T04:13:20.302Z,9.50
2022-10-28T04:15:47.398Z,8.88
2022-10-28T04:18:14.465Z,8.10
2022-10-28T04:20:41.630Z,8.90
2022-10-28T04:23:09.513Z,9.10
2022-10-28T04:25:36.586Z,9.10
2022-10-28T04:28:03.654Z,8.88
2022-10-28T04:30:30.757Z,8.27
2022-10-28T04:32:57.834Z,8.73
2022-10-28T04:35:25.054Z,7.88
2022-10-28T04:37:52.469Z,8.60
2022-10-28T04:40:19.817Z,8.00
2022-10-28T04:42:46.861Z,8.07
2022-10-28T04:45:15.605Z,8.55
2022-10-28T04:47:42.680Z,7.90
2022-10-28T04:50:09.793Z,8.57
2022-10-28T04:52:36.491Z,8.30
2022-10-28T04:55:03.578Z,7.60
2022-10-28T04:57:32.356Z,7.93
2022-10-28T04:59:59.381Z,7.93
2022-10-28T05:02:26.514Z,7.63
2022-10-28T05:04:53.713Z,7.38
2022-10-28T05:07:22.868Z,7.95
2022-10-28T05:09:50.824Z,7.05
2022-10-28T05:12:17.861Z,7.68
2022-10-28T05:14:44.915Z,7.43
2022-10-28T05:17:12.260Z,7.78
2022-10-28T05:19:39.340Z,7.32
2022-10-28T05:22:06.417Z,8.00
2022-10-28T05:24:33.448Z,7.43
2022-10-28T05:27:00.908Z,8.25
2022-10-28T05:29:33.040Z,7.32
2022-10-28T05:32:00.961Z,7.32
2022-10-28T05:34:28.069Z,7.20
2022-10-28T05:36:55.116Z,7.80
2022-10-28T05:39:22.196Z,8.17
2022-10-28T05:41:49.288Z,7.93
2022-10-28T05:44:16.369Z,7.97
2022-10-28T05:46:43.384Z,7.22
2022-10-28T05:49:10.465Z,6.90
2022-10-28T05:51:37.552Z,6.80
2022-10-28T05:54:04.751Z,7.40
2022-10-28T05:56:31.833Z,7.45
2022-10-28T05:58:58.817Z,7.53
2022-10-28T06:01:25.963Z,8.05
2022-10-28T06:03:53.150Z,6.95
2022-10-28T06:06:20.272Z,7.15
2022-10-28T06:08:46.940Z,7.05
2022-10-28T06:11:12.600Z,7.40
2022-10-28T06:13:39.666Z,7.38
2022-10-28T06:16:07.598Z,7.65
2022-10-28T06:18:34.643Z,7.55
2022-10-28T06:21:01.598Z,8.00
2022-10-28T06:23:28.763Z,7.60
2022-10-28T06:28:29.408Z,8.05
2022-10-28T06:31:04.393Z,8.80
2022-10-28T06:33:32.613Z,8.38
2022-10-28T06:35:59.697Z,8.38
2022-10-28T06:38:27.675Z,8.80
2022-10-28T06:40:57.822Z,8.90
2022-10-28T06:43:24.972Z,9.60
2022-10-28T06:45:55.316Z,8.53
2022-10-28T06:48:24.661Z,8.75
2022-10-28T06:50:51.729Z,8.85
2022-10-28T06:53:18.826Z,10.18
2022-10-28T06:55:55.596Z,9.90
2022-10-28T06:58:23.097Z,9.30
2022-10-28T07:00:50.147Z,8.20
2022-10-28T07:03:18.741Z,7.00
2022-10-28T07:05:46.855Z,6.90
2022-10-28T07:08:14.457Z,6.80
2022-10-28T07:10:42.133Z,7.30
2022-10-28T07:13:09.325Z,7.55
2022-10-28T07:15:36.363Z,8.52
2022-10-28T07:18:03.439Z,11.20
2022-10-28T07:20:32.827Z,12.07
2022-10-28T07:23:00.858Z,10.68
2022-10-28T07:25:28.438Z,10.52
2022-10-28T07:27:57.380Z,10.70
2022-10-28T07:30:24.320Z,9.82
2022-10-28T07:32:51.661Z,9.83
2022-10-28T07:35:18.961Z,11.00
2022-10-28T07:37:46.081Z,10.13
2022-10-28T07:40:13.416Z,10.02
2022-10-28T07:42:40.516Z,10.57
2022-10-28T07:45:07.719Z,9.95
2022-10-28T07:47:34.817Z,9.45
2022-10-28T07:50:01.880Z,9.18
2022-10-28T07:52:28.955Z,9.45
2022-10-28T07:54:56.168Z,9.02
2022-10-28T07:57:23.294Z,8.65
2022-10-28T07:59:50.369Z,8.30
2022-10-28T08:02:18.723Z,7.75
2022-10-28T08:04:45.878Z,7.60
2022-10-28T08:07:13.475Z,6.87
2022-10-28T08:09:41.078Z,9.68
2022-10-28T08:12:08.527Z,6.90
2022-10-28T08:14:35.879Z,6.72
2022-10-28T08:17:02.952Z,6.60
2022-10-28T08:19:30.242Z,7.28
2022-10-28T08:21:57.404Z,6.87
2022-10-28T08:24:24.523Z,6.63
2022-10-28T08:26:51.808Z,7.38
2022-10-28T08:29:18.884Z,7.60
2022-10-28T08:31:45.956Z,7.72
2022-10-28T08:34:13.126Z,7.80
2022-10-28T08:36:40.276Z,6.75
2022-10-28T08:39:07.430Z,6.28
2022-10-28T08:41:45.700Z,5.87
2022-10-28T08:44:32.675Z,5.53
2022-10-28T08:47:19.656Z,5.63
2022-10-28T08:49:49.362Z,5.80
2022-10-28T08:52:35.448Z,5.30
2022-10-28T08:55:05.029Z,5.57
2022-10-28T08:57:52.389Z,5.13
2022-10-28T09:00:21.498Z,5.30
2022-10-28T09:02:53.868Z,4.78
2022-10-28T09:05:22.563Z,4.90
2022-10-28T09:07:49.729Z,4.68
2022-10-28T09:10:17.735Z,4.10
2022-10-28T09:12:44.742Z,4.40
2022-10-28T09:15:24.730Z,3.63
2022-10-28T09:17:52.256Z,3.70
2022-10-28T09:20:21.098Z,3.88
2022-10-28T09:22:49.190Z,3.47
2022-10-28T09:25:23.782Z,3.40
2022-10-28T09:27:57.624Z,3.13
2022-10-28T09:30:40.177Z,3.30
2022-10-28T09:33:07.265Z,3.20
2022-10-28T09:35:37.365Z,3.33
2022-10-28T09:38:12.668Z,3.33
2022-10-28T09:40:41.550Z,3.17
2022-10-28T09:43:26.878Z,2.92
2022-10-28T09:45:55.085Z,2.90
2022-10-28T09:48:26.330Z,3.25
2022-10-28T09:50:54.882Z,3.00
2022-10-28T09:53:41.915Z,3.17
2022-10-28T09:56:09.633Z,2.90
2022-10-28T09:58:37.371Z,2.97
2022-10-28T10:01:05.093Z,2.80
2022-10-28T10:03:32.820Z,3.20
2022-10-28T10:06:03.402Z,2.67
2022-10-28T10:08:31.457Z,2.88
2022-10-28T10:11:01.938Z,2.70
2022-10-28T10:13:30.314Z,3.10
2022-10-28T10:16:01.450Z,2.88
2022-10-28T10:18:32.909Z,2.93
2022-10-28T10:21:00.237Z,2.63
2022-10-28T10:23:28.425Z,3.00
2022-10-28T10:25:57.883Z,2.58
2022-10-28T10:28:26.127Z,2.78
2022-10-28T10:30:54.713Z,2.40
2022-10-28T10:33:25.133Z,2.50
2022-10-28T10:35:59.083Z,2.85
2022-10-28T10:38:27.722Z,2.67
2022-10-28T10:40:54.831Z,2.47
2022-10-28T10:43:31.460Z,2.60
2022-10-28T10:46:03.814Z,2.47
2022-10-28T10:48:32.387Z,2.67
2022-10-28T10:50:59.570Z,2.60
2022-10-28T10:53:28.226Z,2.80
2022-10-28T10:55:57.390Z,2.65
2022-10-28T10:58:25.712Z,2.50
2022-10-28T11:00:54.257Z,2.50
2022-10-28T11:03:25.341Z,2.50
2022-10-28T11:06:05.459Z,2.50
2022-10-28T11:08:43.232Z,2.40
2022-10-28T11:11:13.284Z,2.13
2022-10-28T11:13:43.580Z,2.35
2022-10-28T11:16:21.903Z,2.10
2022-10-28T11:18:50.253Z,2.25
2022-10-28T11:21:20.685Z,2.08
2022-10-28T11:23:50.962Z,2.00
2022-10-28T11:26:19.354Z,2.25
2022-10-28T11:29:07.444Z,2.67
2022-10-28T11:31:54.421Z,2.40
2022-10-28T11:34:22.455Z,1.80
2022-10-28T11:37:09.702Z,1.83
2022-10-28T11:39:56.715Z,2.25
2022-10-28T11:42:27.034Z,2.00
2022-10-28T11:44:59.585Z,2.10
2022-10-28T11:47:26.650Z,1.90
2022-10-28T11:50:02.283Z,1.70
2022-10-28T11:52:44.992Z,1.77
2022-10-28T11:55:32.358Z,2.03
2022-10-28T11:58:19.375Z,1.67
2022-10-28T12:00:54.734Z,1.60
2022-10-28T12:03:21.843Z,2.10
2022-10-28T12:05:51.900Z,1.60
2022-10-28T12:08:20.049Z,1.95
2022-10-28T12:11:07.059Z,1.80
2022-10-28T12:13:41.506Z,1.88
2022-10-28T12:16:22.706Z,2.08
2022-10-28T12:18:57.147Z,1.83
2022-10-28T12:21:42.282Z,1.75
2022-10-28T12:24:13.970Z,2.15
2022-10-28T12:26:42.489Z,1.80
2022-10-28T12:29:14.909Z,2.05
2022-10-28T12:31:50.857Z,2.10
2022-10-28T12:34:23.079Z,2.00
2022-10-28T12:36:55.389Z,1.98
2022-10-28T12:39:25.441Z,1.90
2022-10-28T12:41:52.476Z,1.80
2022-10-28T12:44:21.040Z,2.00
2022-10-28T12:49:40.936Z,1.75
2022-10-28T12:52:23.664Z,1.60
2022-10-28T12:54:54.062Z,1.70
2022-10-28T12:57:22.639Z,2.28
2022-10-28T12:59:53.804Z,1.60
2022-10-28T13:02:25.996Z,1.77
2022-10-28T13:04:53.328Z,1.90
2022-10-28T13:07:20.540Z,1.60
2022-10-28T13:10:07.558Z,1.88
2022-10-28T13:12:50.201Z,2.10
2022-10-28T13:15:23.136Z,1.60
2022-10-28T13:18:10.127Z,1.75
2022-10-28T13:20:44.509Z,1.90
2022-10-28T13:23:11.664Z,1.70
2022-10-28T13:25:46.815Z,1.67
2022-10-28T13:28:18.843Z,1.70
2022-10-28T13:30:54.590Z,1.50
2022-10-28T13:33:24.274Z,1.90
2022-10-28T13:35:51.527Z,1.80
2022-10-28T13:38:21.908Z,1.70
2022-10-28T13:40:52.305Z,1.60
2022-10-28T13:43:20.449Z,1.60
2022-10-28T13:45:55.565Z,2.33
2022-10-28T13:48:30.173Z,1.63
2022-10-28T13:51:12.876Z,1.80
2022-10-28T13:53:47.284Z,1.85
2022-10-28T13:56:15.316Z,1.70
2022-10-28T13:58:50.037Z,2.00
2022-10-28T14:01:37.168Z,1.90
2022-10-28T14:04:04.971Z,1.88
2022-10-28T14:06:33.117Z,2.10
2022-10-28T14:09:00.460Z,1.80
2022-10-28T14:11:30.280Z,1.65
2022-10-28T14:14:00.243Z,1.55
2022-10-28T14:16:30.887Z,1.87
2022-10-28T14:19:02.927Z,1.70
2022-10-28T14:21:49.905Z,1.73
2022-10-28T14:24:34.019Z,1.77
2022-10-28T14:27:08.431Z,1.83
2022-10-28T14:29:44.571Z,2.05
2022-10-28T14:32:31.687Z,1.77
2022-10-28T14:34:59.949Z,1.77
2022-10-28T14:37:28.521Z,1.63
2022-10-28T14:40:06.719Z,1.90
2022-10-28T14:42:56.522Z,1.70
2022-10-28T14:45:23.538Z,1.80
2022-10-28T14:47:54.242Z,1.90
2022-10-28T14:50:23.224Z,1.98
2022-10-28T14:52:50.989Z,2.55
2022-10-28T14:55:26.594Z,2.03
2022-10-28T14:57:54.018Z,1.85
2022-10-28T15:00:22.465Z,2.22
2022-10-28T15:02:50.874Z,2.38
2022-10-28T15:05:20.810Z,2.20
2022-10-28T15:07:48.429Z,2.13
2022-10-28T15:10:26.923Z,2.10
2022-10-28T15:12:55.141Z,2.33
2022-10-28T15:15:23.624Z,2.43
2022-10-28T15:17:50.939Z,2.47
2022-10-28T15:20:19.032Z,1.90
2022-10-28T15:22:46.956Z,1.77
2022-10-28T15:25:15.018Z,2.05
2022-10-28T15:27:43.047Z,3.80
2022-10-28T15:30:15.546Z,2.38
2022-10-28T15:32:42.641Z,2.42
2022-10-28T15:35:26.713Z,3.33
2022-10-28T15:37:54.866Z,3.33
2022-10-28T15:40:23.923Z,3.95
2022-10-28T15:42:54.308Z,3.60
2022-10-28T15:45:25.080Z,2.88
2022-10-28T15:47:52.839Z,3.80
2022-10-28T15:50:20.095Z,2.30
2022-10-28T15:52:50.034Z,1.90
2022-10-28T15:55:23.857Z,2.10
2022-10-28T15:58:00.414Z,1.70
2022-10-28T16:00:28.961Z,1.90
2022-10-28T16:02:56.967Z,3.35
2022-10-28T16:05:44.286Z,3.28
2022-10-28T16:08:28.244Z,3.53
2022-10-28T16:10:56.560Z,2.70
2022-10-28T16:13:33.316Z,2.50
2022-10-28T16:16:02.260Z,2.50
2022-10-28T16:18:30.180Z,2.63
2022-10-28T16:20:59.258Z,2.63
2022-10-28T16:23:28.613Z,11.93
2022-10-28T16:25:55.693Z,5.97
2022-10-28T16:28:26.688Z,14.63
2022-10-28T16:30:56.080Z,11.33
2022-10-28T16:33:27.294Z,16.53
2022-10-28T16:35:54.488Z,9.10
2022-10-28T16:38:21.612Z,5.18
2022-10-28T16:40:52.036Z,4.40
2022-10-28T16:43:20.906Z,3.70
2022-10-28T16:45:48.461Z,4.30
2022-10-28T16:48:16.481Z,10.43
2022-10-28T16:50:48.184Z,8.03
2022-10-28T16:53:15.526Z,13.85
2022-10-28T16:55:42.843Z,20.67
2022-10-28T16:58:10.121Z,15.82
2022-10-28T17:00:37.318Z,11.65
2022-10-28T17:03:04.485Z,9.73
2022-10-28T17:05:31.696Z,7.80
2022-10-28T17:07:59.803Z,15.23
2022-10-28T17:10:27.739Z,10.73
2022-10-28T17:12:54.932Z,6.22
2022-10-28T17:15:22.244Z,8.85
2022-10-28T17:17:49.970Z,16.67
2022-10-28T17:20:17.160Z,7.45
2022-10-28T17:22:44.226Z,5.70
2022-10-28T17:25:11.301Z,4.10
2022-10-28T17:27:38.512Z,3.28
2022-10-28T17:30:06.196Z,3.33
2022-10-28T17:32:33.334Z,4.07
2022-10-28T17:35:00.393Z,4.93
2022-10-28T17:37:27.499Z,4.50
2022-10-28T17:42:22.647Z,3.40
2022-10-28T17:44:49.800Z,5.18
2022-10-28T17:47:16.880Z,5.18
2022-10-28T17:49:43.941Z,4.63
2022-10-28T17:52:11.056Z,4.85
2022-10-28T17:54:38.165Z,3.97
2022-10-28T17:57:05.249Z,3.63
2022-10-28T17:59:32.417Z,3.35
2022-10-28T18:01:59.630Z,2.80
2022-10-28T18:04:27.028Z,3.00
2022-10-28T18:06:54.946Z,3.30
2022-10-28T18:09:22.258Z,3.15
2022-10-28T18:11:49.854Z,3.22
2022-10-28T18:14:17.688Z,3.00
2022-10-28T18:16:45.953Z,3.10
2022-10-28T18:19:13.689Z,3.20
2022-10-28T18:21:40.721Z,3.30
2022-10-28T18:24:08.235Z,3.00
2022-10-28T18:26:36.232Z,3.13
2022-10-28T18:29:04.555Z,2.80
2022-10-28T18:31:33.324Z,2.75
2022-10-28T18:34:00.939Z,3.60
2022-10-28T18:36:30.570Z,4.10
2022-10-28T18:38:58.086Z,4.20
2022-10-28T18:41:26.241Z,6.63
2022-10-28T18:43:54.277Z,5.33
2022-10-28T18:46:21.658Z,5.40
2022-10-28T18:48:49.297Z,4.75
2022-10-28T18:51:16.503Z,4.80
2022-10-28T18:53:44.509Z,3.67
2022-10-28T18:56:13.431Z,3.45
2022-10-28T18:58:41.217Z,3.67
2022-10-28T19:01:10.913Z,4.35
2022-10-28T19:03:38.082Z,5.20
2022-10-28T19:06:06.469Z,6.75
2022-10-28T19:08:33.669Z,6.03
2022-10-28T19:11:01.577Z,6.03
2022-10-28T19:13:29.168Z,6.55
2022-10-28T19:15:56.289Z,5.65
2022-10-28T19:18:23.392Z,3.90
2022-10-28T19:20:50.624Z,3.97
2022-10-28T19:23:17.848Z,3.70
2022-10-28T19:25:54.480Z,3.78
2022-10-28T19:28:21.621Z,3.75
2022-10-28T19:30:48.680Z,4.45
2022-10-28T19:33:15.749Z,5.07
2022-10-28T19:35:42.788Z,5.97
2022-10-28T19:38:09.912Z,6.97
2022-10-28T19:40:36.956Z,9.77
2022-10-28T19:43:04.029Z,6.97
2022-10-28T19:45:31.109Z,8.32
2022-10-28T19:48:01.444Z,7.47
2022-10-28T19:50:28.652Z,5.47
2022-10-28T19:52:55.872Z,4.30
2022-10-28T19:55:22.947Z,4.00
2022-10-28T19:57:52.006Z,4.93
2022-10-28T20:00:20.182Z,4.53
2022-10-28T20:02:47.936Z,4.45
2022-10-28T20:05:15.059Z,4.10
2022-10-28T20:07:42.154Z,4.40
2022-10-28T20:10:09.375Z,4.78
2022-10-28T20:12:36.459Z,4.53
2022-10-28T20:15:03.561Z,11.68
2022-10-28T20:17:30.641Z,5.20
2022-10-28T20:19:57.695Z,5.60
2022-10-28T20:22:24.723Z,5.20
2022-10-28T20:24:51.784Z,4.45
2022-10-28T20:27:18.851Z,6.70
2022-10-28T20:29:45.491Z,7.88
2022-10-28T20:32:12.576Z,6.88
2022-10-28T20:34:39.616Z,6.60
2022-10-28T20:37:06.699Z,7.50
2022-10-28T20:39:33.737Z,7.13
2022-10-28T20:42:00.802Z,5.60
2022-10-28T20:44:27.819Z,4.35
2022-10-28T20:46:54.911Z,3.95
2022-10-28T20:49:21.957Z,4.37
2022-10-28T20:51:49.934Z,4.32
2022-10-28T20:54:17.070Z,4.55
2022-10-28T20:56:44.097Z,7.57
2022-10-28T20:59:11.156Z,7.18
2022-10-28T21:01:39.585Z,7.50
2022-10-28T21:04:08.440Z,7.50
2022-10-28T21:06:36.613Z,6.78
2022-10-28T21:09:05.148Z,5.57
2022-10-28T21:11:32.315Z,4.57
2022-10-28T21:14:00.711Z,3.65
2022-10-28T21:16:28.425Z,4.15
2022-10-28T21:18:55.887Z,4.13
2022-10-28T21:21:23.702Z,4.40
2022-10-28T21:23:50.851Z,3.80
2022-10-28T21:26:17.912Z,4.50
2022-10-28T21:28:45.266Z,4.70
2022-10-28T21:31:13.981Z,4.70
2022-10-28T21:33:41.810Z,4.43
2022-10-28T21:36:11.383Z,5.00
2022-10-28T21:38:38.412Z,4.57
2022-10-28T21:41:13.947Z,4.75
2022-10-28T21:43:42.121Z,5.00
2022-10-28T21:46:09.273Z,4.50
2022-10-28T21:48:36.966Z,4.55
2022-10-28T21:51:08.582Z,3.97
2022-10-28T21:53:39.285Z,4.50
2022-10-28T21:56:11.121Z,5.38
2022-10-28T21:58:41.450Z,5.63
2022-10-28T22:01:10.129Z,6.10
2022-10-28T22:03:37.327Z,6.30
2022-10-28T22:06:04.884Z,5.28
2022-10-28T22:08:32.025Z,5.38
2022-10-28T22:11:00.032Z,3.85
2022-10-28T22:13:27.342Z,4.28
2022-10-28T22:16:02.950Z,4.65
2022-10-28T22:18:30.779Z,4.60
2022-10-28T22:20:58.162Z,4.60
2022-10-28T22:23:25.155Z,4.50
2022-10-28T22:25:52.221Z,4.53
2022-10-28T22:28:19.285Z,4.13
2022-10-28T22:30:46.358Z,4.50
2022-10-28T22:33:13.378Z,4.55
2022-10-28T22:35:40.491Z,4.03
2022-10-28T22:38:07.574Z,4.13
2022-10-28T22:40:34.621Z,4.55
2022-10-28T22:43:01.714Z,4.95
2022-10-28T22:45:28.757Z,5.60
2022-10-28T22:47:56.173Z,4.57
2022-10-28T22:50:23.449Z,4.70
2022-10-28T22:52:52.358Z,4.88
2022-10-28T22:55:19.480Z,5.10
2022-10-28T22:57:46.597Z,4.57
2022-10-28T23:00:13.957Z,4.65
2022-10-28T23:02:41.155Z,4.45
2022-10-28T23:05:08.637Z,4.20
2022-10-28T23:07:35.687Z,4.32
2022-10-28T23:10:02.728Z,3.90
2022-10-28T23:12:29.793Z,4.40
2022-10-28T23:14:58.532Z,4.22
2022-10-28T23:17:25.625Z,4.78
2022-10-28T23:19:52.669Z,4.30
2022-10-28T23:22:19.701Z,4.25
2022-10-28T23:24:46.769Z,4.45
2022-10-28T23:27:13.801Z,5.25
2022-10-28T23:29:40.948Z,5.28
2022-10-28T23:32:08.001Z,4.82
2022-10-28T23:34:35.113Z,4.65
2022-10-28T23:37:02.169Z,4.90
2022-10-28T23:39:29.997Z,4.60
2022-10-28T23:41:56.640Z,4.60
2022-10-28T23:44:23.680Z,5.22
2022-10-28T23:46:50.778Z,4.90
2022-10-28T23:49:17.849Z,4.80
2022-10-28T23:51:44.861Z,5.28
2022-10-28T23:54:11.916Z,4.72
2022-10-28T23:56:39.032Z,5.03
2022-10-28T23:59:06.154Z,4.50
